Historyczne dane pomiarowe

Dodano dane terminowe – wersja testowa.

Dane z okresu 1951-2019

Wersja bazy: 1.34 [2019-03-16, lista zmian], aktualizacja planowana na 2019-04-15

Dane meteo z obszaru Polski uzyskane na podstawie danych udostępnionych przez Instytut Meteorologii i Gospodarki Wodnej – Państwowy Instytut Badawczy.

 

Wybierz Datę:    

       

TemperaturaWilgotnośćZachmurzenieWiatrCiśnienieWidzialnośćZjawiska
 Data    tng td wb rh cc ccl cl cm ch dir g1 g2 mslp ppp      
2002-09-27 00:00:00 7.4--- 4.9 6.284wxwxwx2wx--1009.7 987.1 0.0---wx
2002-09-27 01:00:00 7.1--- 4.6 5.984wxwxwx2wx--1009.6 987.0----wx
2002-09-27 02:00:00 6.7--- 5.0 5.989wxwxwx1wx--1009.5 986.9----wx
2002-09-27 03:00:00 6.4--- 4.9 5.790wxwxwx1wx--1009.7 987.1----wxw1
2002-09-27 04:00:00 6.4--- 5.4 5.993wxwxwx1wx--1009.7 987.1----wx
2002-09-27 05:00:00 6.0--- 5.4 5.796wxwxwx1wx--1010.4 987.7----wx
2002-09-27 06:00:00 6.6--- 5.6 6.193wxwxwx1wx--1010.9 988.2 0.1---wxw1
2002-09-27 07:00:00 7.5--- 6.1 6.891wxwxwxwx2wx--1011.2 988.6----wx
2002-09-27 08:00:00 8.6--- 5.3 7.080wxwxwxwx2wx--1011.6 989.1----wxw1
2002-09-27 09:00:00 9.0--- 5.8 7.480wxwxwxwx2wx--1012.1 989.6----wx
2002-09-27 10:00:00 10.1--- 7.2 8.682wxwxwxwx2wx--1012.3 989.9----wxw1
2002-09-27 11:00:00 10.7--- 5.3 8.069wxwxwxwx2wx--1012.5 990.1----wxw1
2002-09-27 12:00:00 11.2--- 5.8 8.570wxwxwxwx2wx--1012.7 990.4 0.0---wx
2002-09-27 13:00:00 11.4--- 4.5 8.062wxwxwx3wx--1013.0 990.7----wx
2002-09-27 14:00:00 11.6--- 4.2 8.061wxwxwx2wx--1013.3 991.0----wx
2002-09-27 15:00:00 11.1--- 4.8 8.065wxwxwx4wx--1014.0 991.6----wx
2002-09-27 16:00:00 9.5--- 6.5 8.082wxwxwx5wx--1014.7 992.2----wx
2002-09-27 17:00:00 8.8--- 6.8 7.887wxwxwx4wx--1015.5 992.9----wx
2002-09-27 18:00:00 8.3--- 6.5 7.488wxwxwx4wx--1016.0 993.4 0.0---wx
2002-09-27 19:00:00 8.3--- 6.5 7.488wxwxwx4wx--1016.5 993.9----wx
2002-09-27 20:00:00 7.7--- 5.9 6.888wxwxwx5wx--1017.2 994.5----wx
2002-09-27 21:00:00 7.1--- 5.0 6.187wxwxwx5wx--1018.0 995.2----wx
2002-09-27 22:00:00 6.5--- 4.8 5.789wxwxwx5wx--1018.4 995.6----wx
2002-09-27 23:00:00 6.6--- 4.3 5.585wxwxwx4wx--1018.6 995.8----wx

 

Źródłem pochodzenia danych jest Instytut Meteorologii i Gospodarki Wodnej – Państwowy Instytut Badawczy. Dane Instytutu Meteorologii i Gospodarki Wodnej – Państwowego Instytutu Badawczego zostały przetworzone.

Dane źródłowe można odnaleźć na stronie https://dane.imgw.pl